createdAt,value
2018-07-03T00:00:43.860Z,17.80
2018-07-03T00:03:11.905Z,17.70
2018-07-03T00:05:39.968Z,17.60
2018-07-03T00:08:08.013Z,17.50
2018-07-03T00:10:36.115Z,17.30
2018-07-03T00:13:04.193Z,17.10
2018-07-03T00:15:32.252Z,16.90
2018-07-03T00:18:00.337Z,16.70
2018-07-03T00:34:38.530Z,16.10
2018-07-03T00:37:06.585Z,16.10
2018-07-03T00:39:34.670Z,16.00
2018-07-03T00:42:02.737Z,15.90
2018-07-03T00:44:30.824Z,15.80
2018-07-03T00:46:58.897Z,15.70
2018-07-03T00:49:26.954Z,15.80
2018-07-03T00:51:55.088Z,15.70
2018-07-03T00:54:23.159Z,15.70
2018-07-03T00:56:55.317Z,15.70
2018-07-03T00:59:23.389Z,15.60
2018-07-03T01:01:51.441Z,15.50
2018-07-03T01:04:19.513Z,15.50
2018-07-03T01:06:47.674Z,15.40
2018-07-03T01:12:06.382Z,15.20
2018-07-03T01:14:34.445Z,15.20
2018-07-03T01:17:02.515Z,15.10
2018-07-03T01:19:30.561Z,15.00
2018-07-03T01:21:58.617Z,15.00
2018-07-03T01:26:54.521Z,14.90
2018-07-03T01:29:22.585Z,14.90
2018-07-03T01:31:50.649Z,14.80
2018-07-03T01:34:18.701Z,14.80
2018-07-03T01:36:46.816Z,14.80
2018-07-03T01:39:14.869Z,14.80
2018-07-03T01:41:42.952Z,14.90
2018-07-03T01:44:11.112Z,14.80
2018-07-03T01:46:39.209Z,14.80
2018-07-03T01:49:11.173Z,14.80
2018-07-03T01:51:39.233Z,14.90
2018-07-03T01:54:07.300Z,15.00
2018-07-03T01:56:35.350Z,15.00
2018-07-03T01:59:03.413Z,15.00
2018-07-03T02:01:31.476Z,15.10
2018-07-03T02:03:59.553Z,15.10
2018-07-03T02:06:27.604Z,15.20
2018-07-03T02:08:55.670Z,15.10
2018-07-03T02:11:23.747Z,15.00
2018-07-03T02:13:51.800Z,14.90
2018-07-03T02:16:19.873Z,14.90
2018-07-03T02:18:48.305Z,14.70
2018-07-03T02:21:16.376Z,14.60
2018-07-03T02:23:44.593Z,14.50
2018-07-03T02:26:12.756Z,14.40
2018-07-03T02:28:40.834Z,14.40
2018-07-03T02:31:08.917Z,14.50
2018-07-03T02:33:37.041Z,14.60
2018-07-03T02:36:05.145Z,14.60
2018-07-03T02:38:33.189Z,14.50
2018-07-03T02:41:01.345Z,14.60
2018-07-03T02:43:29.389Z,14.50
2018-07-03T02:45:57.456Z,14.50
2018-07-03T02:48:25.505Z,14.60
2018-07-03T02:50:53.576Z,14.70
2018-07-03T02:53:21.620Z,14.60
2018-07-03T02:55:49.701Z,14.60
2018-07-03T02:58:17.785Z,14.50
2018-07-03T03:00:45.929Z,14.50
2018-07-03T03:03:14.006Z,14.50
2018-07-03T03:05:42.076Z,14.50
2018-07-03T03:08:10.183Z,14.60
2018-07-03T03:10:38.345Z,14.60
2018-07-03T03:13:06.433Z,14.60
2018-07-03T03:15:34.493Z,14.50
2018-07-03T03:18:02.582Z,14.50
2018-07-03T03:20:30.653Z,14.40
2018-07-03T03:22:58.784Z,14.40
2018-07-03T03:25:26.841Z,14.30
2018-07-03T03:27:54.961Z,14.30
2018-07-03T03:30:23.018Z,14.30
2018-07-03T03:32:51.112Z,14.40
2018-07-03T03:35:19.165Z,14.50
2018-07-03T03:37:47.237Z,14.50
2018-07-03T03:40:15.296Z,14.40
2018-07-03T03:42:43.452Z,14.40
2018-07-03T03:45:12.032Z,14.30
2018-07-03T03:47:40.137Z,14.30
2018-07-03T03:50:08.229Z,14.20
2018-07-03T03:52:36.325Z,14.20
2018-07-03T03:55:04.445Z,14.20
2018-07-03T03:57:32.505Z,14.20
2018-07-03T04:00:00.597Z,14.20
2018-07-03T04:02:28.646Z,14.20
2018-07-03T04:04:56.743Z,14.20
2018-07-03T04:07:24.944Z,14.10
2018-07-03T04:12:20.829Z,14.10
2018-07-03T04:14:48.901Z,14.10
2018-07-03T04:17:16.985Z,14.00
2018-07-03T04:19:45.049Z,14.10
2018-07-03T04:22:13.105Z,14.10
2018-07-03T04:24:41.326Z,14.20
2018-07-03T04:27:09.392Z,14.30
2018-07-03T04:29:37.441Z,14.30
2018-07-03T04:32:05.531Z,14.30
2018-07-03T04:34:33.603Z,14.30
2018-07-03T04:37:01.649Z,14.30
2018-07-03T04:39:29.717Z,14.40
2018-07-03T04:41:57.762Z,14.40
2018-07-03T04:44:25.840Z,14.50
2018-07-03T04:46:53.909Z,14.60
2018-07-03T04:49:21.932Z,14.60
2018-07-03T04:51:50.019Z,14.70
2018-07-03T04:56:45.920Z,14.80
2018-07-03T04:59:14.060Z,15.00
2018-07-03T05:01:42.134Z,15.10
2018-07-03T05:04:10.168Z,15.20
2018-07-03T05:06:38.240Z,15.30
2018-07-03T05:09:08.553Z,15.40
2018-07-03T05:11:36.600Z,15.50
2018-07-03T05:14:04.877Z,15.60
2018-07-03T05:16:32.965Z,15.70
2018-07-03T05:19:01.032Z,15.80
2018-07-03T05:21:29.260Z,16.00
2018-07-03T05:23:57.341Z,16.10
2018-07-03T05:26:25.414Z,16.20
2018-07-03T05:28:53.617Z,16.40
2018-07-03T05:31:21.746Z,16.50
2018-07-03T05:36:17.716Z,16.80
2018-07-03T05:38:45.825Z,16.90
2018-07-03T05:41:13.945Z,17.00
2018-07-03T05:43:42.012Z,17.10
2018-07-03T05:46:10.203Z,17.30
2018-07-03T05:48:38.256Z,17.40
2018-07-03T05:51:06.328Z,17.50
2018-07-03T05:53:34.401Z,17.60
2018-07-03T05:56:02.658Z,17.80
2018-07-03T05:58:30.532Z,17.90
2018-07-03T06:00:58.654Z,18.00
2018-07-03T06:03:26.724Z,18.10
2018-07-03T06:05:54.825Z,18.20
2018-07-03T06:08:22.875Z,18.20
2018-07-03T06:10:50.975Z,18.30
2018-07-03T06:13:19.029Z,18.40
2018-07-03T06:15:47.173Z,18.40
2018-07-03T06:18:15.233Z,18.50
2018-07-03T06:20:43.311Z,18.60
2018-07-03T06:23:11.376Z,18.60
2018-07-03T06:28:07.521Z,18.80
2018-07-03T06:30:35.629Z,18.90
2018-07-03T06:33:03.811Z,19.00
2018-07-03T06:35:31.868Z,19.10
2018-07-03T06:38:02.057Z,19.10
2018-07-03T06:40:30.098Z,19.10
2018-07-03T06:42:58.758Z,19.30
2018-07-03T06:45:26.837Z,19.40
2018-07-03T06:47:56.162Z,19.40
2018-07-03T06:50:24.842Z,19.50
2018-07-03T06:55:21.553Z,19.80
2018-07-03T06:57:49.932Z,19.90
2018-07-03T07:00:17.943Z,20.10
2018-07-03T07:05:13.856Z,20.50
2018-07-03T07:07:41.921Z,20.60
2018-07-03T07:10:09.961Z,20.70
2018-07-03T07:12:38.149Z,20.90
2018-07-03T07:15:07.031Z,21.10
2018-07-03T07:17:35.136Z,21.30
2018-07-03T07:20:03.247Z,21.50
2018-07-03T07:22:31.356Z,21.60
2018-07-03T07:24:59.472Z,21.80
2018-07-03T07:27:27.631Z,21.90
2018-07-03T07:29:55.685Z,22.00
2018-07-03T07:32:23.772Z,22.10
2018-07-03T07:34:51.870Z,22.20
2018-07-03T07:37:20.046Z,22.40
2018-07-03T07:39:48.124Z,22.50
2018-07-03T07:42:16.329Z,22.60
2018-07-03T07:44:44.413Z,22.80
2018-07-03T07:47:12.498Z,23.10
2018-07-03T07:49:40.526Z,23.70
2018-07-03T07:52:08.605Z,24.50
2018-07-03T07:54:36.808Z,24.90
2018-07-03T07:57:04.897Z,24.60
2018-07-03T07:59:33.039Z,24.20
2018-07-03T08:02:01.064Z,24.00
2018-07-03T08:04:29.127Z,23.80
2018-07-03T08:06:57.157Z,23.60
2018-07-03T08:09:25.229Z,23.40
2018-07-03T08:11:53.279Z,23.40
2018-07-03T08:14:21.369Z,23.60
2018-07-03T08:19:17.335Z,24.30
2018-07-03T08:21:45.419Z,24.60
2018-07-03T08:24:13.728Z,24.80
2018-07-03T08:26:41.892Z,25.00
2018-07-03T08:29:09.976Z,25.40
2018-07-03T08:31:38.012Z,26.00
2018-07-03T08:34:06.146Z,26.10
2018-07-03T08:36:34.169Z,26.10
2018-07-03T08:39:02.197Z,26.20
2018-07-03T08:41:30.276Z,26.30
2018-07-03T08:43:58.324Z,26.40
2018-07-03T08:46:26.390Z,26.80
2018-07-03T08:48:54.513Z,27.20
2018-07-03T08:51:22.604Z,27.70
2018-07-03T08:53:50.789Z,28.10
2018-07-03T08:56:18.937Z,28.20
2018-07-03T08:58:46.978Z,28.00
2018-07-03T09:01:15.046Z,28.30
2018-07-03T09:03:43.136Z,28.60
2018-07-03T09:06:11.263Z,28.60
2018-07-03T09:08:41.997Z,28.60
2018-07-03T09:11:10.124Z,28.80
2018-07-03T09:13:38.184Z,28.60
2018-07-03T09:16:09.376Z,28.80
2018-07-03T09:18:42.466Z,29.10
2018-07-03T09:21:19.620Z,29.40
2018-07-03T09:23:47.656Z,29.60
2018-07-03T09:26:17.727Z,29.80
2018-07-03T09:28:49.466Z,29.80
2018-07-03T09:31:17.668Z,29.90
2018-07-03T09:33:45.704Z,29.90
2018-07-03T09:36:13.816Z,30.00
2018-07-03T09:38:43.438Z,29.90
2018-07-03T09:41:11.476Z,29.80
2018-07-03T09:43:39.757Z,29.70
2018-07-03T09:46:08.330Z,29.50
2018-07-03T09:48:38.901Z,29.40
2018-07-03T09:51:07.085Z,29.20
2018-07-03T09:53:35.148Z,29.10
2018-07-03T09:56:03.316Z,29.10
2018-07-03T09:58:31.353Z,29.20
2018-07-03T10:01:02.797Z,28.90
2018-07-03T10:03:30.833Z,28.80
2018-07-03T10:05:59.456Z,28.70
2018-07-03T10:08:28.644Z,28.70
2018-07-03T10:10:56.697Z,28.50
2018-07-03T10:13:24.766Z,28.60
2018-07-03T10:15:52.820Z,28.60
2018-07-03T10:18:20.907Z,28.60
2018-07-03T10:23:16.800Z,29.00
2018-07-03T10:25:44.841Z,29.30
2018-07-03T10:28:12.909Z,29.40
2018-07-03T10:30:40.985Z,29.60
2018-07-03T10:33:09.044Z,29.60
2018-07-03T10:35:37.100Z,29.60
2018-07-03T10:38:05.526Z,29.60
2018-07-03T10:40:33.580Z,29.60
2018-07-03T10:43:01.681Z,29.50
2018-07-03T10:45:29.754Z,29.60
2018-07-03T10:47:57.788Z,29.60
2018-07-03T10:50:25.865Z,29.70
2018-07-03T10:52:53.947Z,29.70
2018-07-03T10:55:22.035Z,29.80
2018-07-03T10:57:50.069Z,29.90
2018-07-03T11:00:18.112Z,29.80
2018-07-03T11:02:46.173Z,29.60
2018-07-03T11:05:14.229Z,29.40
2018-07-03T11:07:42.289Z,29.20
2018-07-03T11:10:10.341Z,29.20
2018-07-03T11:12:38.393Z,29.10
2018-07-03T11:15:06.431Z,29.10
2018-07-03T11:17:34.480Z,29.20
2018-07-03T11:20:02.554Z,29.10
2018-07-03T11:22:30.596Z,29.10
2018-07-03T11:24:58.673Z,28.90
2018-07-03T11:27:26.733Z,28.80
2018-07-03T11:29:55.309Z,28.70
2018-07-03T11:32:23.466Z,28.60
2018-07-03T11:34:51.509Z,28.70
2018-07-03T11:37:19.704Z,28.70
2018-07-03T11:39:47.765Z,28.60
2018-07-03T11:42:15.856Z,28.60
2018-07-03T11:44:44.148Z,28.50
2018-07-03T11:47:12.189Z,28.60
2018-07-03T11:49:40.308Z,28.50
2018-07-03T11:52:08.364Z,28.40
2018-07-03T11:54:36.420Z,28.40
2018-07-03T11:57:04.497Z,28.40
2018-07-03T11:59:32.540Z,28.40
2018-07-03T12:02:00.577Z,28.40
2018-07-03T12:04:28.632Z,28.50
2018-07-03T12:06:57.321Z,28.40
2018-07-03T12:09:25.369Z,28.20
2018-07-03T12:11:53.450Z,28.20
2018-07-03T12:14:21.528Z,28.10
2018-07-03T12:16:49.834Z,28.00
2018-07-03T12:19:24.388Z,27.80
2018-07-03T12:21:52.459Z,27.60
2018-07-03T12:24:20.529Z,27.30
2018-07-03T12:26:48.665Z,27.20
2018-07-03T12:29:16.732Z,27.10
2018-07-03T12:31:44.796Z,27.00
2018-07-03T12:34:12.866Z,26.80
2018-07-03T12:36:41.002Z,26.60
2018-07-03T12:39:10.016Z,26.50
2018-07-03T12:41:38.104Z,26.40
2018-07-03T12:44:06.611Z,26.30
2018-07-03T12:49:02.545Z,26.20
2018-07-03T12:51:30.617Z,26.20
2018-07-03T12:53:58.702Z,26.20
2018-07-03T12:56:26.756Z,26.10
2018-07-03T12:58:55.325Z,26.00
2018-07-03T13:01:23.372Z,26.00
2018-07-03T13:03:51.463Z,26.00
2018-07-03T13:07:23.069Z,26.10
2018-07-03T13:09:51.221Z,26.10
2018-07-03T13:12:19.288Z,26.30
2018-07-03T13:14:47.396Z,26.40
2018-07-03T13:17:16.448Z,26.40
2018-07-03T13:19:44.489Z,26.40
2018-07-03T13:22:12.545Z,26.30
2018-07-03T13:24:40.593Z,26.20
2018-07-03T13:27:08.632Z,26.10
2018-07-03T13:29:36.685Z,26.00
2018-07-03T13:32:11.217Z,26.00
2018-07-03T13:34:39.380Z,26.00
2018-07-03T13:37:07.453Z,26.00
2018-07-03T13:39:35.588Z,25.90
2018-07-03T13:42:03.703Z,25.90
2018-07-03T13:44:31.711Z,25.90
2018-07-03T13:46:59.876Z,25.90
2018-07-03T13:49:27.940Z,25.90
2018-07-03T13:51:56.092Z,25.80
2018-07-03T13:54:24.128Z,25.70
2018-07-03T13:56:52.372Z,25.70
2018-07-03T13:59:20.413Z,25.70
2018-07-03T14:01:48.464Z,25.70
2018-07-03T14:04:16.514Z,25.70
2018-07-03T14:06:44.573Z,25.70
2018-07-03T14:09:12.629Z,25.70
2018-07-03T14:11:40.677Z,25.70
2018-07-03T14:14:08.865Z,25.70
2018-07-03T14:16:36.900Z,25.70
2018-07-03T14:19:05.051Z,25.70
2018-07-03T14:21:33.114Z,25.70
2018-07-03T14:24:01.189Z,25.70
2018-07-03T14:26:29.233Z,25.70
2018-07-03T14:28:57.301Z,25.60
2018-07-03T14:31:25.349Z,25.60
2018-07-03T14:33:53.473Z,25.60
2018-07-03T14:36:21.578Z,25.60
2018-07-03T14:38:49.586Z,25.60
2018-07-03T14:41:17.649Z,25.50
2018-07-03T14:43:45.692Z,25.50
2018-07-03T14:46:13.752Z,25.50
2018-07-03T14:48:42.006Z,25.50
2018-07-03T14:51:10.065Z,25.60
2018-07-03T14:53:38.122Z,25.50
2018-07-03T14:56:06.173Z,25.60
2018-07-03T14:58:34.240Z,25.60
2018-07-03T15:01:02.294Z,25.50
2018-07-03T15:03:30.340Z,25.50
2018-07-03T15:05:58.391Z,25.50
2018-07-03T15:08:26.438Z,25.50
2018-07-03T15:10:54.461Z,25.50
2018-07-03T15:13:22.725Z,25.50
2018-07-03T15:15:50.764Z,25.50
2018-07-03T15:18:18.805Z,25.40
2018-07-03T15:20:46.884Z,25.40
2018-07-03T15:23:14.943Z,25.30
2018-07-03T15:25:43.067Z,25.30
2018-07-03T15:28:11.058Z,25.30
2018-07-03T15:33:07.059Z,25.20
2018-07-03T15:35:35.092Z,25.20
2018-07-03T15:38:03.362Z,25.20
2018-07-03T15:42:59.334Z,25.20
2018-07-03T15:45:27.509Z,25.20
2018-07-03T15:47:55.568Z,25.20
2018-07-03T15:50:23.780Z,25.20
2018-07-03T15:52:58.436Z,25.10
2018-07-03T15:55:26.500Z,25.10
2018-07-03T15:57:54.560Z,25.10
2018-07-03T16:00:22.617Z,25.10
2018-07-03T16:04:01.022Z,25.10
2018-07-03T16:06:40.654Z,25.10
2018-07-03T16:09:13.478Z,25.10
2018-07-03T16:11:41.529Z,25.10
2018-07-03T16:14:10.440Z,24.90
2018-07-03T16:16:38.568Z,24.90
2018-07-03T16:19:12.128Z,24.80
2018-07-03T16:21:40.195Z,24.80
2018-07-03T16:24:09.726Z,24.80
2018-07-03T16:26:38.097Z,24.70
2018-07-03T16:29:08.199Z,24.70
2018-07-03T16:31:38.073Z,24.70
2018-07-03T16:34:06.256Z,24.60
2018-07-03T16:36:34.485Z,24.60
2018-07-03T16:39:02.534Z,24.50
2018-07-03T16:41:30.608Z,24.50
2018-07-03T16:43:58.737Z,24.50
2018-07-03T16:46:26.806Z,24.50
2018-07-03T16:48:54.877Z,24.40
2018-07-03T16:53:50.877Z,24.30
2018-07-03T16:56:18.970Z,24.20
2018-07-03T16:58:47.032Z,24.20
2018-07-03T17:01:15.117Z,24.20
2018-07-03T17:03:43.280Z,24.20
2018-07-03T17:06:11.442Z,24.10
2018-07-03T17:08:39.501Z,24.10
2018-07-03T17:11:07.573Z,24.10
2018-07-03T17:13:35.778Z,24.00
2018-07-03T17:16:03.765Z,24.00
2018-07-03T17:18:32.637Z,24.00
2018-07-03T17:21:00.725Z,23.90
2018-07-03T17:23:29.041Z,23.90
2018-07-03T17:25:57.334Z,23.80
2018-07-03T17:28:25.817Z,23.70
2018-07-03T17:30:53.885Z,23.70
2018-07-03T17:33:21.925Z,23.60
2018-07-03T17:35:50.092Z,23.60
2018-07-03T17:38:18.809Z,23.60
2018-07-03T17:40:58.466Z,23.50
2018-07-03T17:44:05.037Z,23.50
2018-07-03T17:46:33.192Z,23.50
2018-07-03T17:49:03.327Z,23.40
2018-07-03T17:51:31.556Z,23.30
2018-07-03T17:53:59.652Z,23.30
2018-07-03T17:56:27.709Z,23.20
2018-07-03T17:58:55.906Z,23.10
2018-07-03T18:01:24.011Z,23.10
2018-07-03T18:03:52.412Z,23.00
2018-07-03T18:06:20.604Z,23.00
2018-07-03T18:08:49.384Z,22.90
2018-07-03T18:11:17.549Z,22.90
2018-07-03T18:13:45.621Z,22.90
2018-07-03T18:16:13.796Z,22.80
2018-07-03T18:18:42.304Z,22.70
2018-07-03T18:21:10.885Z,22.70
2018-07-03T18:23:40.589Z,22.60
2018-07-03T18:26:08.789Z,22.60
2018-07-03T18:28:39.324Z,22.50
2018-07-03T18:31:08.539Z,22.50
2018-07-03T18:33:36.609Z,22.40
2018-07-03T18:36:04.697Z,22.40
2018-07-03T18:41:00.600Z,22.30
2018-07-03T18:43:28.660Z,22.20
2018-07-03T18:45:56.715Z,22.20
2018-07-03T18:48:24.873Z,22.10
2018-07-03T18:50:53.116Z,22.10
2018-07-03T18:53:21.197Z,22.00
2018-07-03T18:55:49.237Z,22.00
2018-07-03T18:58:17.408Z,21.90
2018-07-03T19:00:45.441Z,21.90
2018-07-03T19:03:13.502Z,21.90
2018-07-03T19:05:41.565Z,21.90
2018-07-03T19:08:09.622Z,21.80
2018-07-03T19:10:37.706Z,21.80
2018-07-03T19:13:05.914Z,21.70
2018-07-03T19:15:33.988Z,21.70
2018-07-03T19:18:02.044Z,21.70
2018-07-03T19:20:30.125Z,21.60
2018-07-03T19:22:58.254Z,21.60
2018-07-03T19:25:26.330Z,21.50
2018-07-03T19:27:54.421Z,21.50
2018-07-03T19:30:22.447Z,21.40
2018-07-03T19:32:50.564Z,21.40
2018-07-03T19:35:18.634Z,21.30
2018-07-03T19:40:14.537Z,21.30
2018-07-03T19:43:24.352Z,21.20
2018-07-03T19:45:53.218Z,21.20
2018-07-03T19:48:21.306Z,21.10
2018-07-03T19:50:50.681Z,21.00
2018-07-03T19:53:18.879Z,21.00
2018-07-03T19:55:48.177Z,21.00
2018-07-03T19:58:16.411Z,21.00
2018-07-03T20:00:44.494Z,20.90
2018-07-03T20:03:12.560Z,20.80
2018-07-03T20:05:41.514Z,20.80
2018-07-03T20:08:09.705Z,20.70
2018-07-03T20:10:38.541Z,20.70
2018-07-03T20:13:08.270Z,20.60
2018-07-03T20:15:36.821Z,20.70
2018-07-03T20:18:05.229Z,20.60
2018-07-03T20:20:33.333Z,20.60
2018-07-03T20:23:05.768Z,20.50
2018-07-03T20:25:34.341Z,20.50
2018-07-03T20:28:03.205Z,20.40
2018-07-03T20:30:36.550Z,20.30
2018-07-03T20:33:06.635Z,20.30
2018-07-03T20:35:34.872Z,20.20
2018-07-03T20:38:04.212Z,20.20
2018-07-03T20:40:41.321Z,20.20
2018-07-03T20:43:09.385Z,20.10
2018-07-03T20:45:37.569Z,20.10
2018-07-03T20:48:05.624Z,20.00
2018-07-03T20:50:33.668Z,20.00
2018-07-03T20:53:01.745Z,19.90
2018-07-03T20:55:30.593Z,19.90
2018-07-03T20:58:04.530Z,19.90
2018-07-03T21:00:32.844Z,19.90
2018-07-03T21:03:02.582Z,19.80
2018-07-03T21:05:31.472Z,19.80
2018-07-03T21:08:01.315Z,19.80
2018-07-03T21:10:29.837Z,19.70
2018-07-03T21:12:58.099Z,19.60
2018-07-03T21:15:31.425Z,19.60
2018-07-03T21:17:59.706Z,19.50
2018-07-03T21:20:27.990Z,19.50
2018-07-03T21:22:58.199Z,19.40
2018-07-03T21:25:26.264Z,19.40
2018-07-03T21:27:54.497Z,19.40
2018-07-03T21:30:22.580Z,19.30
2018-07-03T21:32:50.862Z,19.20
2018-07-03T21:35:19.025Z,19.20
2018-07-03T21:37:47.110Z,19.20
2018-07-03T21:40:17.661Z,19.20
2018-07-03T21:42:45.914Z,19.10
2018-07-03T21:45:13.986Z,19.10
2018-07-03T21:47:42.036Z,19.00
2018-07-03T21:50:10.137Z,18.90
2018-07-03T21:52:38.190Z,18.80
2018-07-03T21:55:07.422Z,18.70
2018-07-03T21:57:36.140Z,18.50
2018-07-03T22:00:06.034Z,18.30
2018-07-03T22:02:34.192Z,18.20
2018-07-03T22:05:02.275Z,18.20
2018-07-03T22:07:30.329Z,18.10
2018-07-03T22:09:58.389Z,18.10
2018-07-03T22:12:26.457Z,18.00
2018-07-03T22:14:54.537Z,18.10
2018-07-03T22:17:22.582Z,18.10
2018-07-03T22:19:50.641Z,18.00
2018-07-03T22:22:18.836Z,18.00
2018-07-03T22:24:46.944Z,17.90
2018-07-03T22:27:15.071Z,17.90
2018-07-03T22:29:43.052Z,17.90
2018-07-03T22:32:11.149Z,17.90
2018-07-03T22:34:39.221Z,17.90
2018-07-03T22:37:07.281Z,17.80
2018-07-03T22:39:35.378Z,17.70
2018-07-03T22:42:03.421Z,17.70
2018-07-03T22:44:31.506Z,17.60
2018-07-03T22:46:59.560Z,17.60
2018-07-03T22:49:27.646Z,17.60
2018-07-03T22:51:55.705Z,17.60
2018-07-03T22:54:23.802Z,17.60
2018-07-03T22:56:51.982Z,17.60
2018-07-03T22:59:20.047Z,17.50
2018-07-03T23:01:48.157Z,17.40
2018-07-03T23:04:16.240Z,17.30
2018-07-03T23:06:44.309Z,17.30
2018-07-03T23:09:12.480Z,17.20
2018-07-03T23:11:40.540Z,17.20
2018-07-03T23:14:08.621Z,17.10
2018-07-03T23:16:36.701Z,17.00
2018-07-03T23:19:04.744Z,16.90
2018-07-03T23:21:32.824Z,16.80
2018-07-03T23:24:00.922Z,16.80
2018-07-03T23:26:29.126Z,16.70
2018-07-03T23:28:57.194Z,16.70
2018-07-03T23:31:25.300Z,16.70
2018-07-03T23:33:53.356Z,16.60
2018-07-03T23:36:21.404Z,16.50
2018-07-03T23:38:49.552Z,16.40
2018-07-03T23:41:17.752Z,16.40
2018-07-03T23:43:45.829Z,16.40
2018-07-03T23:46:25.289Z,16.40
2018-07-03T23:49:04.773Z,16.40
2018-07-03T23:51:44.467Z,16.40
2018-07-03T23:54:24.040Z,16.30
2018-07-03T23:57:03.805Z,16.30
2018-07-03T23:59:43.488Z,16.30
